Time;durP1;ratioP1;P1;durP2;ratioP2;P2;SDS_P1;SDS_P2;PMS_P1;PMS_P2;Temp;Humidity;BMP_temperature;BMP_pressure;BME280_temperature;BME280_humidity;BME280_pressure;Samples;Min_cycle;Max_cycle;Signal;HPM_P1;HPM_P2
2021/11/29 00:00:58;;;;;;;10.88;6.80;;;230.40;2252.80;;;;;;5051913;28;20044;-68
2021/11/29 00:03:25;;;;;;;10.13;5.55;;;205.70;2252.80;;;;;;5051917;28;20037;-63
2021/11/29 00:05:50;;;;;;;30.80;18.27;;;230.40;2252.80;;;;;;5052469;28;20049;-65
2021/11/29 00:08:16;;;;;;;68.22;39.78;;;205.70;2252.80;;;;;;5052291;28;20384;-65
2021/11/29 00:10:42;;;;;;;35.08;20.42;;;230.40;2252.80;;;;;;5052066;28;20143;-68
2021/11/29 00:13:08;;;;;;;68.40;39.67;;;205.60;2252.80;;;;;;5052100;28;20028;-65
2021/11/29 00:15:34;;;;;;;38.50;23.30;;;205.70;2252.80;;;;;;5051865;28;20025;-65
2021/11/29 00:18:02;;;;;;;21.38;12.95;;;205.70;2252.80;;;;;;5052041;28;20051;-69
2021/11/29 00:20:28;;;;;;;53.45;33.33;;;205.40;2252.80;;;;;;5051868;28;20021;-68
2021/11/29 00:22:54;;;;;;;65.85;38.97;;;205.50;2252.80;;;;;;5051840;28;20146;-67
2021/11/29 00:25:20;;;;;;;44.45;30.50;;;205.50;2252.80;;;;;;5052018;28;20059;-67
2021/11/29 00:27:46;;;;;;;39.53;22.90;;;205.50;2252.80;;;;;;5051439;28;20028;-66
2021/11/29 00:30:14;;;;;;;50.55;32.75;;;205.50;2252.80;;;;;;5051651;28;20033;-68
2021/11/29 00:32:40;;;;;;;72.20;42.28;;;205.50;2252.80;;;;;;5051980;28;20029;-68
2021/11/29 00:35:06;;;;;;;48.85;27.77;;;205.70;2252.80;;;;;;5051308;28;20033;-68
2021/11/29 00:37:33;;;;;;;60.85;37.70;;;205.60;2252.80;;;;;;5051490;28;20029;-69
2021/11/29 00:39:58;;;;;;;45.10;27.25;;;205.70;2252.80;;;;;;5051754;28;20029;-69
2021/11/29 00:42:24;;;;;;;70.47;42.95;;;205.70;2252.80;;;;;;5051492;28;20037;-67
2021/11/29 00:44:50;;;;;;;68.05;45.67;;;205.70;2252.80;;;;;;5051736;28;20028;-65
2021/11/29 00:47:16;;;;;;;67.38;42.60;;;230.40;2252.80;;;;;;5051481;28;20375;-69
2021/11/29 00:49:42;;;;;;;40.45;22.35;;;205.70;2252.80;;;;;;5051044;28;20024;-66
2021/11/29 00:52:08;;;;;;;27.05;14.40;;;230.40;2252.80;;;;;;5051563;28;20521;-67
2021/11/29 00:54:34;;;;;;;20.00;12.95;;;230.50;2252.80;;;;;;5051134;28;20383;-66
2021/11/29 00:57:00;;;;;;;12.40;8.43;;;230.50;2252.80;;;;;;5051327;28;20025;-66
2021/11/29 00:59:26;;;;;;;9.77;5.88;;;230.40;2252.80;;;;;;5050893;28;20024;-67
2021/11/29 01:01:52;;;;;;;12.27;7.57;;;230.40;2252.80;;;;;;5050976;28;20056;-65
2021/11/29 01:04:18;;;;;;;23.50;15.57;;;230.50;2252.80;;;;;;5051114;28;20036;-63
2021/11/29 01:06:44;;;;;;;36.00;20.73;;;230.40;2252.80;;;;;;5050931;28;20029;-65
2021/11/29 01:09:10;;;;;;;58.42;28.95;;;230.50;2252.80;;;;;;5051078;28;20444;-65
2021/11/29 01:11:36;;;;;;;30.05;18.98;;;230.40;2252.80;;;;;;5050950;28;20029;-64
2021/11/29 01:14:02;;;;;;;47.08;24.30;;;205.70;2252.80;;;;;;5050868;28;20105;-64
2021/11/29 01:16:28;;;;;;;26.30;14.93;;;205.70;2252.80;;;;;;5050953;28;20017;-64
2021/11/29 01:18:54;;;;;;;47.17;25.88;;;205.70;2252.80;;;;;;5050538;28;20048;-62
2021/11/29 01:21:20;;;;;;;30.15;15.65;;;205.70;2252.80;;;;;;5050989;28;20476;-67
2021/11/29 01:23:46;;;;;;;36.58;20.30;;;205.50;2252.80;;;;;;5050981;28;20136;-62
2021/11/29 01:26:12;;;;;;;25.58;14.70;;;205.40;2252.80;;;;;;5050434;28;20444;-63
2021/11/29 01:28:39;;;;;;;30.85;16.63;;;205.30;2252.80;;;;;;5050833;28;20108;-67
2021/11/29 01:31:05;;;;;;;50.78;28.83;;;205.30;2252.80;;;;;;5050376;28;20093;-63
2021/11/29 01:33:31;;;;;;;51.28;28.42;;;205.30;2252.80;;;;;;5050305;28;20523;-62
2021/11/29 01:35:57;;;;;;;38.75;19.95;;;205.30;2252.80;;;;;;5050525;28;20102;-65
2021/11/29 01:38:22;;;;;;;32.67;18.80;;;205.30;2252.80;;;;;;5050206;28;20025;-63
2021/11/29 01:40:49;;;;;;;29.77;16.13;;;205.20;2252.80;;;;;;5049912;28;20036;-62
2021/11/29 01:43:19;;;;;;;47.58;23.77;;;205.20;2252.80;;;;;;5050187;28;20037;-65
2021/11/29 01:45:50;;;;;;;32.72;16.02;;;205.20;2252.80;;;;;;5050302;28;20024;-68
2021/11/29 01:48:16;;;;;;;22.55;12.90;;;205.30;2252.80;;;;;;5050315;28;20029;-63
2021/11/29 01:50:45;;;;;;;44.67;23.23;;;205.30;2252.80;;;;;;5050159;28;20020;-64
2021/11/29 01:53:11;;;;;;;25.08;14.52;;;205.10;2252.80;;;;;;5050458;28;20586;-67
2021/11/29 01:55:38;;;;;;;14.13;7.90;;;205.10;2252.80;;;;;;5050248;28;20079;-67
2021/11/29 01:58:05;;;;;;;13.10;8.55;;;205.10;2252.80;;;;;;5049957;28;20483;-65
2021/11/29 02:00:38;;;;;;;19.63;13.63;;;205.10;2252.80;;;;;;5049793;28;20053;-66
2021/11/29 02:03:04;;;;;;;9.70;5.88;;;205.20;2252.80;;;;;;5049879;28;20045;-68
2021/11/29 02:05:30;;;;;;;6.70;4.80;;;205.10;2252.80;;;;;;5049965;28;20112;-67
2021/11/29 02:07:57;;;;;;;10.40;6.25;;;205.20;2252.80;;;;;;5050127;28;20430;-66
2021/11/29 02:10:25;;;;;;;15.50;8.20;;;204.90;2252.80;;;;;;5049796;28;20061;-65
2021/11/29 02:12:51;;;;;;;15.07;10.15;;;204.90;2252.80;;;;;;5049883;28;20029;-67
2021/11/29 02:15:17;;;;;;;18.63;11.55;;;204.80;2252.80;;;;;;5050052;28;20456;-67
2021/11/29 02:17:44;;;;;;;22.45;11.63;;;205.00;2252.80;;;;;;5049566;28;20025;-64
2021/11/29 02:20:12;;;;;;;16.58;9.75;;;205.00;2252.80;;;;;;5049870;28;20028;-68
2021/11/29 02:22:39;;;;;;;16.58;8.82;;;205.10;2252.80;;;;;;5049818;28;20360;-70
2021/11/29 02:25:05;;;;;;;19.60;10.77;;;205.10;2252.80;;;;;;5049646;28;20033;-66
2021/11/29 02:27:31;;;;;;;16.30;10.25;;;205.20;2252.80;;;;;;5049856;28;20029;-65
2021/11/29 02:29:58;;;;;;;21.48;12.50;;;205.20;2252.80;;;;;;5049687;28;20025;-65
2021/11/29 02:32:23;;;;;;;15.05;10.23;;;205.20;2252.80;;;;;;5049740;28;20025;-70
2021/11/29 02:34:50;;;;;;;14.75;8.55;;;204.80;2252.80;;;;;;5049805;28;20108;-65
2021/11/29 02:37:16;;;;;;;17.10;9.25;;;180.10;2252.80;;;;;;5049749;28;20037;-65
2021/11/29 02:39:42;;;;;;;16.80;8.55;;;179.90;2252.80;;;;;;5049619;28;20025;-67
2021/11/29 02:42:11;;;;;;;13.40;8.30;;;179.90;2252.80;;;;;;5049543;28;20029;-66
2021/11/29 02:44:37;;;;;;;10.52;6.05;;;179.90;2252.80;;;;;;5049705;28;20025;-66
2021/11/29 02:47:03;;;;;;;13.13;7.50;;;179.90;2252.80;;;;;;5049535;28;20425;-68
2021/11/29 02:49:29;;;;;;;12.25;7.00;;;180.10;2252.80;;;;;;5049580;28;20021;-67
2021/11/29 02:52:02;;;;;;;10.70;7.45;;;180.10;2252.80;;;;;;5052760;28;20086;-65
2021/11/29 02:54:31;;;;;;;12.50;8.75;;;179.70;2252.80;;;;;;5053671;28;20051;-66
2021/11/29 02:57:00;;;;;;;12.27;5.80;;;179.80;2252.80;;;;;;5053644;28;20025;-70
2021/11/29 02:59:29;;;;;;;8.43;5.93;;;179.70;2252.80;;;;;;5053246;28;20059;-65
2021/11/29 03:01:58;;;;;;;8.95;5.70;;;179.60;2252.80;;;;;;5053226;28;20379;-65
2021/11/29 03:04:27;;;;;;;9.27;7.20;;;179.60;2252.80;;;;;;5053191;28;20028;-65
2021/11/29 03:06:53;;;;;;;9.55;5.88;;;179.50;2252.80;;;;;;5053111;28;20416;-66
2021/11/29 03:09:19;;;;;;;9.48;5.63;;;179.60;2252.80;;;;;;5053360;28;20114;-67
2021/11/29 03:11:46;;;;;;;7.43;5.50;;;179.70;2252.80;;;;;;5053074;28;20155;-65
2021/11/29 03:14:13;;;;;;;10.48;7.40;;;179.80;2252.80;;;;;;5053039;28;20013;-66
2021/11/29 03:16:40;;;;;;;9.23;6.03;;;179.90;2252.80;;;;;;5052987;28;20027;-64
2021/11/29 03:19:05;;;;;;;19.45;11.90;;;180.00;2252.80;;;;;;5052994;28;20037;-66
2021/11/29 03:21:32;;;;;;;26.15;15.27;;;180.00;2252.80;;;;;;5052890;28;20033;-67
2021/11/29 03:24:01;;;;;;;42.28;23.70;;;180.10;2252.80;;;;;;5053066;28;20078;-64
2021/11/29 03:26:29;;;;;;;41.83;22.85;;;204.90;2252.80;;;;;;5053210;28;20079;-66
2021/11/29 03:28:59;;;;;;;24.20;15.07;;;204.90;2252.80;;;;;;5052776;28;20029;-65
2021/11/29 03:31:27;;;;;;;18.55;11.27;;;180.00;2252.80;;;;;;5052577;28;20365;-68
2021/11/29 03:33:56;;;;;;;15.32;10.10;;;179.80;2252.80;;;;;;5052754;28;20087;-67
2021/11/29 03:36:28;;;;;;;15.00;9.50;;;179.90;2252.80;;;;;;5052713;28;20021;-65
2021/11/29 03:38:54;;;;;;;14.95;9.80;;;179.70;2252.80;;;;;;5052647;28;20025;-68
2021/11/29 03:41:21;;;;;;;13.75;9.30;;;179.90;2252.80;;;;;;5052653;28;20494;-66
2021/11/29 03:43:46;;;;;;;16.30;10.88;;;179.70;2252.80;;;;;;5052763;28;20052;-68
2021/11/29 03:46:12;;;;;;;16.10;9.75;;;179.80;2252.80;;;;;;5052357;28;20025;-66
2021/11/29 03:48:38;;;;;;;14.52;9.32;;;179.60;2252.80;;;;;;5051385;28;20475;-65
2021/11/29 03:51:04;;;;;;;14.32;9.23;;;179.50;2252.80;;;;;;5052289;28;20056;-65
2021/11/29 03:53:30;;;;;;;14.95;11.80;;;179.40;2252.80;;;;;;5052431;28;20482;-66
2021/11/29 03:55:57;;;;;;;67.32;32.03;;;179.50;2252.80;;;;;;5052561;28;20033;-67
2021/11/29 03:58:22;;;;;;;43.70;25.38;;;179.60;2252.80;;;;;;5052156;28;20541;-68
2021/11/29 04:00:49;;;;;;;46.45;26.13;;;179.60;2252.80;;;;;;5052178;28;20041;-65
2021/11/29 04:03:15;;;;;;;17.63;12.75;;;179.60;2252.80;;;;;;5051067;28;20476;-65
2021/11/29 04:05:41;;;;;;;17.60;12.27;;;179.60;2252.80;;;;;;5052148;28;20025;-65
2021/11/29 04:08:06;;;;;;;23.77;15.23;;;179.40;2252.80;;;;;;5052233;28;20533;-66
2021/11/29 04:10:33;;;;;;;27.67;16.17;;;179.60;2252.80;;;;;;5052010;28;20475;-65
2021/11/29 04:12:58;;;;;;;24.52;16.48;;;179.60;2252.80;;;;;;5052203;28;20025;-68
2021/11/29 04:15:24;;;;;;;31.95;19.85;;;179.70;2252.80;;;;;;5051801;28;20483;-67
2021/11/29 04:17:50;;;;;;;32.30;20.80;;;179.70;2252.80;;;;;;5052201;28;20034;-68
2021/11/29 04:20:16;;;;;;;29.58;16.83;;;179.70;2252.80;;;;;;5052049;28;20040;-64
2021/11/29 04:22:47;;;;;;;28.80;17.50;;;179.80;2252.80;;;;;;5051698;28;20044;-65
2021/11/29 04:25:19;;;;;;;31.10;22.10;;;179.80;2252.80;;;;;;5051798;28;20052;-66
2021/11/29 04:27:47;;;;;;;31.25;21.75;;;179.70;2252.80;;;;;;5051616;28;20021;-67
2021/11/29 04:30:19;;;;;;;25.58;19.17;;;179.70;2252.80;;;;;;5051536;28;20426;-63
2021/11/29 04:32:47;;;;;;;39.70;18.75;;;179.60;2252.80;;;;;;5051630;28;20036;-68
2021/11/29 04:35:13;;;;;;;352.90;153.68;;;179.40;2252.80;;;;;;5051481;28;20025;-67
2021/11/29 04:37:39;;;;;;;751.22;338.05;;;179.60;2252.80;;;;;;5051879;28;20106;-65
2021/11/29 04:40:06;;;;;;;106.80;45.60;;;179.50;2252.80;;;;;;5051572;28;20045;-64
2021/11/29 04:42:31;;;;;;;126.03;52.35;;;179.40;2252.80;;;;;;5051428;28;20436;-65
2021/11/29 04:44:57;;;;;;;297.98;132.82;;;179.40;2252.80;;;;;;5051483;28;20098;-66
2021/11/29 04:47:23;;;;;;;468.38;238.75;;;179.30;2252.80;;;;;;5051365;28;20029;-65
2021/11/29 04:49:49;;;;;;;249.70;123.95;;;179.40;2252.80;;;;;;5051560;28;20025;-68
2021/11/29 04:52:16;;;;;;;165.50;83.30;;;179.40;2252.80;;;;;;5051396;28;20017;-68
2021/11/29 04:54:42;;;;;;;29.50;20.85;;;179.40;2252.80;;;;;;5051188;28;20025;-65
2021/11/29 04:57:08;;;;;;;66.18;34.75;;;179.40;2252.80;;;;;;5051342;28;20070;-68
2021/11/29 04:59:34;;;;;;;17.92;13.30;;;179.30;2252.80;;;;;;5050790;28;20091;-66
2021/11/29 05:02:01;;;;;;;35.92;23.92;;;179.20;2252.80;;;;;;5051181;28;20475;-66
2021/11/29 05:04:27;;;;;;;110.55;60.58;;;179.20;2252.80;;;;;;5051139;28;20033;-65
2021/11/29 05:06:53;;;;;;;30.42;19.23;;;179.20;2252.80;;;;;;5050942;28;20017;-65
2021/11/29 05:09:19;;;;;;;33.53;20.80;;;179.20;2252.80;;;;;;5051044;28;20032;-65
2021/11/29 05:11:45;;;;;;;21.85;15.50;;;179.30;2252.80;;;;;;5050953;28;20063;-65
2021/11/29 05:14:10;;;;;;;25.48;16.38;;;179.30;2252.80;;;;;;5049266;28;20087;-65
2021/11/29 05:16:38;;;;;;;27.15;19.60;;;179.20;2252.80;;;;;;5050971;28;20033;-66
2021/11/29 05:19:04;;;;;;;22.42;15.93;;;179.30;2252.80;;;;;;5048939;28;20040;-65
2021/11/29 05:21:30;;;;;;;27.60;17.88;;;179.30;2252.80;;;;;;5050984;28;20056;-67
2021/11/29 05:23:56;;;;;;;27.48;19.40;;;179.40;2252.80;;;;;;5050874;28;20514;-66
2021/11/29 05:26:23;;;;;;;80.70;63.80;;;179.40;2252.80;;;;;;5050522;28;20025;-64
2021/11/29 05:28:52;;;;;;;83.20;47.10;;;179.30;2252.80;;;;;;5050722;28;20032;-65
2021/11/29 05:31:19;;;;;;;68.32;43.55;;;179.20;2252.80;;;;;;5050558;28;20035;-64
2021/11/29 05:33:45;;;;;;;68.03;50.58;;;154.50;2252.80;;;;;;5049476;28;20372;-66
2021/11/29 05:36:11;;;;;;;100.10;52.58;;;154.50;2252.80;;;;;;5050401;28;20502;-66
2021/11/29 05:38:37;;;;;;;34.80;20.92;;;154.40;2252.80;;;;;;5050649;28;20021;-65
2021/11/29 05:41:03;;;;;;;28.23;16.55;;;154.30;2252.80;;;;;;5050411;28;20479;-64
2021/11/29 05:43:30;;;;;;;30.67;19.10;;;154.10;2252.80;;;;;;5050494;28;20033;-65
2021/11/29 05:45:57;;;;;;;18.02;11.82;;;154.10;2252.80;;;;;;5050382;28;20053;-66
2021/11/29 05:48:24;;;;;;;16.88;10.00;;;153.90;2252.80;;;;;;5050202;28;20047;-64
2021/11/29 05:50:51;;;;;;;19.83;11.75;;;154.00;2252.80;;;;;;5050085;28;20021;-68
2021/11/29 05:53:17;;;;;;;53.90;31.38;;;153.80;2252.80;;;;;;5050045;28;20021;-65
2021/11/29 05:55:42;;;;;;;37.20;22.90;;;154.00;2252.80;;;;;;5050177;28;20399;-66
2021/11/29 05:58:08;;;;;;;23.42;14.82;;;154.10;2252.80;;;;;;5050050;28;20021;-66
2021/11/29 06:00:34;;;;;;;45.70;29.40;;;154.00;2252.80;;;;;;5049713;28;20048;-66
2021/11/29 06:03:00;;;;;;;59.47;35.88;;;153.80;2252.80;;;;;;5050062;28;20053;-66
2021/11/29 06:05:26;;;;;;;54.75;33.88;;;153.60;2252.80;;;;;;5050242;28;20029;-66
2021/11/29 06:07:52;;;;;;;26.48;14.43;;;128.90;2252.80;;;;;;5049959;28;20029;-69
2021/11/29 06:10:18;;;;;;;13.18;9.40;;;128.90;2252.80;;;;;;5050101;28;20025;-68
2021/11/29 06:12:45;;;;;;;10.95;7.35;;;153.60;2252.80;;;;;;5049975;28;20391;-67
2021/11/29 06:15:12;;;;;;;12.02;9.30;;;153.60;2252.80;;;;;;5049911;28;20029;-67
2021/11/29 06:17:38;;;;;;;14.13;9.00;;;128.90;2252.80;;;;;;5050037;28;20029;-68
2021/11/29 06:20:05;;;;;;;11.02;6.28;;;128.90;2252.80;;;;;;5048829;28;20484;-65
2021/11/29 06:22:31;;;;;;;8.70;5.75;;;128.90;2252.80;;;;;;5049753;28;20036;-70
2021/11/29 06:24:57;;;;;;;12.13;6.95;;;153.60;2252.80;;;;;;5042841;28;20140;-68
2021/11/29 06:27:23;;;;;;;14.57;9.65;;;153.70;2252.80;;;;;;5049744;28;20501;-66
2021/11/29 06:29:49;;;;;;;33.85;25.60;;;153.70;2252.80;;;;;;5049792;28;20107;-68
2021/11/29 06:32:15;;;;;;;22.73;16.75;;;153.80;2252.80;;;;;;5046056;28;20030;-66
2021/11/29 06:34:41;;;;;;;14.68;8.77;;;153.80;2252.80;;;;;;5037129;28;20053;-67
2021/11/29 06:37:08;;;;;;;14.02;7.80;;;153.70;2252.80;;;;;;5038737;28;20025;-69
2021/11/29 06:39:36;;;;;;;13.27;6.28;;;153.70;2252.80;;;;;;5038923;28;20033;-68
2021/11/29 06:42:03;;;;;;;6.72;4.63;;;153.80;2252.80;;;;;;5037147;28;20443;-66
2021/11/29 06:44:29;;;;;;;10.20;5.10;;;153.80;2252.80;;;;;;5040234;28;20029;-60
2021/11/29 06:46:55;;;;;;;10.43;6.00;;;153.90;2252.80;;;;;;5039469;28;20472;-59
2021/11/29 06:49:21;;;;;;;9.55;5.13;;;154.10;2252.80;;;;;;5029754;28;20041;-59
2021/11/29 06:51:47;;;;;;;15.45;8.85;;;154.20;2252.80;;;;;;5029797;28;20040;-59
2021/11/29 06:54:14;;;;;;;9.20;5.88;;;154.40;2252.80;;;;;;5029536;28;20034;-61
2021/11/29 06:56:40;;;;;;;32.42;28.98;;;154.50;2252.80;;;;;;5029698;28;20021;-61
2021/11/29 06:59:06;;;;;;;18.63;11.55;;;179.30;2252.80;;;;;;5029519;28;20107;-62
2021/11/29 07:01:32;;;;;;;12.05;8.52;;;179.30;2252.80;;;;;;5029316;28;20557;-62
2021/11/29 07:03:58;;;;;;;10.35;7.03;;;179.40;2252.80;;;;;;5029579;28;20068;-62
2021/11/29 07:06:25;;;;;;;19.60;12.65;;;179.50;2252.80;;;;;;5029292;28;20491;-61
2021/11/29 07:08:51;;;;;;;25.75;17.15;;;179.70;2252.80;;;;;;5029495;28;20037;-62
2021/11/29 07:11:17;;;;;;;20.73;12.30;;;179.80;2252.80;;;;;;5029555;28;20392;-62
2021/11/29 07:13:43;;;;;;;23.75;18.70;;;179.90;2252.80;;;;;;5029402;28;20053;-60
2021/11/29 07:16:09;;;;;;;141.48;88.95;;;180.10;2252.80;;;;;;5029513;28;20053;-61
2021/11/29 07:18:35;;;;;;;68.70;43.00;;;204.80;2252.80;;;;;;5029249;28;20497;-59
2021/11/29 07:21:01;;;;;;;123.43;110.63;;;205.00;2252.80;;;;;;5029258;28;20029;-59
2021/11/29 07:23:27;;;;;;;24.42;18.58;;;205.10;2252.80;;;;;;5029355;28;20068;-59
2021/11/29 07:25:52;;;;;;;32.10;22.45;;;205.20;2252.80;;;;;;5029344;28;20075;-59
2021/11/29 07:28:18;;;;;;;33.17;23.67;;;205.20;2252.80;;;;;;5029567;28;20029;-59
2021/11/29 07:30:44;;;;;;;51.85;35.17;;;205.20;2252.80;;;;;;5027990;28;20041;-61
2021/11/29 07:33:10;;;;;;;26.58;20.15;;;205.00;2252.80;;;;;;5029387;28;20357;-61
2021/11/29 07:35:36;;;;;;;15.50;9.95;;;204.80;2252.80;;;;;;5029326;28;20092;-61
2021/11/29 07:38:02;;;;;;;45.38;32.13;;;204.90;2252.80;;;;;;5030577;28;20030;-61
2021/11/29 07:40:29;;;;;;;119.47;78.10;;;205.00;2252.80;;;;;;5033021;28;20082;-61
2021/11/29 07:43:00;;;;;;;103.47;65.68;;;204.90;2252.80;;;;;;5032578;28;20484;-58
2021/11/29 07:45:26;;;;;;;50.35;33.85;;;204.90;2252.80;;;;;;5032673;28;20017;-61
2021/11/29 07:47:51;;;;;;;27.27;19.55;;;205.10;2252.80;;;;;;5032670;28;20029;-62
2021/11/29 07:50:19;;;;;;;30.48;19.13;;;205.20;2252.80;;;;;;5032811;28;20032;-61
2021/11/29 07:52:46;;;;;;;30.90;24.52;;;205.30;2252.80;;;;;;5032723;28;20025;-60
2021/11/29 07:55:15;;;;;;;30.80;22.90;;;205.50;2252.80;;;;;;5032900;28;20079;-61
2021/11/29 07:57:41;;;;;;;31.27;20.90;;;205.50;2252.80;;;;;;5032704;28;20025;-60
2021/11/29 08:00:17;;;;;;;23.08;16.13;;;205.40;2252.80;;;;;;5032270;28;20091;-61
2021/11/29 08:02:43;;;;;;;17.05;9.70;;;205.70;2252.80;;;;;;5032308;28;20396;-61
2021/11/29 08:05:09;;;;;;;17.75;11.05;;;230.40;2252.80;;;;;;5032345;28;20455;-61
2021/11/29 08:07:35;;;;;;;15.35;11.88;;;230.60;2252.80;;;;;;5032207;28;20121;-60
2021/11/29 08:10:01;;;;;;;13.88;8.95;;;230.50;2252.80;;;;;;5032259;28;20029;-61
2021/11/29 08:12:26;;;;;;;15.30;9.00;;;230.60;2252.80;;;;;;5032299;28;20438;-61
2021/11/29 08:14:54;;;;;;;14.98;11.27;;;230.80;2252.80;;;;;;5032087;28;20013;-61
2021/11/29 08:17:20;;;;;;;20.85;15.32;;;231.20;2252.80;;;;;;5032379;28;20614;-61
2021/11/29 08:19:46;;;;;;;80.18;55.10;;;231.20;2252.80;;;;;;5032332;28;20060;-62
2021/11/29 08:22:13;;;;;;;30.08;23.30;;;256.10;2252.80;;;;;;5031867;28;20018;-62
2021/11/29 08:24:39;;;;;;;23.52;17.55;;;256.30;2252.80;;;;;;5032046;28;20060;-61
2021/11/29 08:27:05;;;;;;;23.95;17.20;;;256.20;2252.80;;;;;;5031890;28;20021;-61
2021/11/29 08:29:31;;;;;;;25.98;18.00;;;256.00;2252.80;;;;;;5031524;28;20026;-61
2021/11/29 08:31:57;;;;;;;24.20;16.98;;;256.00;2252.80;;;;;;5031968;28;20025;-61
2021/11/29 08:37:46;;;;;;;20.08;14.48;;;281.60;2278.40;;;;;;5031663;28;20025;-61
2021/11/29 08:40:26;;;;;;;24.65;16.02;;;282.20;2278.40;;;;;;5031618;28;20025;-60
2021/11/29 08:42:52;;;;;;;30.95;21.20;;;307.20;2304.00;;;;;;5031610;28;20103;-61
2021/11/29 08:45:18;;;;;;;31.35;23.10;;;307.20;2304.00;;;;;;5031960;28;20021;-61
2021/11/29 08:47:44;;;;;;;24.77;20.20;;;282.40;2278.40;;;;;;5031374;28;20030;-61
2021/11/29 08:50:10;;;;;;;29.70;23.50;;;282.20;2278.40;;;;;;5031251;28;20036;-61
2021/11/29 08:52:36;;;;;;;32.30;24.88;;;281.80;2278.40;;;;;;5031480;28;20037;-62
2021/11/29 08:55:07;;;;;;;25.30;18.17;;;256.90;2252.80;;;;;;5031117;28;20496;-61
2021/11/29 08:57:34;;;;;;;34.90;27.98;;;256.90;2252.80;;;;;;5031263;28;20026;-61
2021/11/29 09:00:00;;;;;;;15.07;10.30;;;281.70;2278.40;;;;;;5031090;28;20455;-61
2021/11/29 09:02:26;;;;;;;14.32;10.68;;;281.70;2278.40;;;;;;5031269;28;20045;-60
2021/11/29 09:04:54;;;;;;;10.93;7.75;;;281.80;2278.40;;;;;;5030970;28;20039;-60
2021/11/29 09:07:20;;;;;;;18.90;14.73;;;281.60;2278.40;;;;;;5031245;28;20025;-61
2021/11/29 09:09:46;;;;;;;28.90;20.38;;;281.70;2278.40;;;;;;5031548;28;20045;-61
2021/11/29 09:12:14;;;;;;;37.35;28.00;;;281.80;2278.40;;;;;;5031129;28;20018;-61
2021/11/29 09:14:41;;;;;;;30.75;27.15;;;281.90;2278.40;;;;;;5031115;28;20380;-61
2021/11/29 09:17:07;;;;;;;40.55;29.92;;;282.00;2278.40;;;;;;5031123;28;20021;-61
2021/11/29 09:19:33;;;;;;;45.42;35.10;;;282.10;2278.40;;;;;;5030677;28;20025;-61
2021/11/29 09:21:59;;;;;;;15.00;12.10;;;282.10;2278.40;;;;;;5030870;28;20052;-61
2021/11/29 09:24:24;;;;;;;14.38;10.30;;;282.30;2278.40;;;;;;5030976;28;20049;-60
2021/11/29 09:26:50;;;;;;;13.93;9.82;;;282.40;2278.40;;;;;;5031243;28;20439;-61
2021/11/29 09:29:16;;;;;;;14.57;9.10;;;282.40;2278.40;;;;;;5030943;28;20391;-61
2021/11/29 09:31:42;;;;;;;14.32;12.23;;;282.40;2278.40;;;;;;5030529;28;20113;-61
2021/11/29 09:34:08;;;;;;;15.88;11.15;;;282.40;2278.40;;;;;;5030685;28;20022;-61
2021/11/29 09:36:34;;;;;;;18.73;14.68;;;282.50;2278.40;;;;;;5030475;28;20088;-61
2021/11/29 09:39:00;;;;;;;27.15;24.50;;;307.20;2304.00;;;;;;5030606;28;20066;-60
2021/11/29 09:41:26;;;;;;;16.33;12.73;;;307.30;2304.00;;;;;;5030443;28;20030;-60
2021/11/29 09:43:53;;;;;;;16.25;12.23;;;307.40;2304.00;;;;;;5030510;28;20069;-60
2021/11/29 09:46:20;;;;;;;21.92;17.65;;;307.30;2304.00;;;;;;5030789;28;20363;-59
2021/11/29 09:48:46;;;;;;;34.08;25.65;;;307.30;2304.00;;;;;;5030369;28;20169;-59
2021/11/29 09:51:12;;;;;;;36.10;29.80;;;307.60;2304.00;;;;;;5030147;28;20029;-61
2021/11/29 09:53:37;;;;;;;37.00;26.33;;;307.80;2304.00;;;;;;5030436;28;20021;-61
2021/11/29 09:56:04;;;;;;;61.17;47.22;;;307.80;2304.00;;;;;;5030242;28;20029;-60
2021/11/29 09:58:31;;;;;;;46.08;35.45;;;307.70;2304.00;;;;;;5030336;28;20029;-60
2021/11/29 10:00:59;;;;;;;27.08;22.70;;;307.40;2304.00;;;;;;5029332;28;20462;-59
2021/11/29 10:03:26;;;;;;;16.95;13.18;;;307.20;2304.00;;;;;;5029897;28;20499;-59
2021/11/29 10:05:54;;;;;;;21.05;18.95;;;282.40;2278.40;;;;;;5030105;28;20376;-61
2021/11/29 10:08:32;;;;;;;13.00;9.75;;;282.10;2278.40;;;;;;5030714;28;20029;-61
2021/11/29 10:11:11;;;;;;;14.88;8.88;;;281.90;2278.40;;;;;;5030106;28;20422;-60
2021/11/29 10:14:05;;;;;;;13.50;9.13;;;281.70;2278.40;;;;;;5030093;28;20037;-60
2021/11/29 10:16:45;;;;;;;13.68;9.25;;;256.90;2252.80;;;;;;5030108;28;20026;-60
2021/11/29 10:19:35;;;;;;;11.95;8.57;;;256.50;2252.80;;;;;;5030148;28;20026;-58
2021/11/29 10:22:22;;;;;;;16.77;11.18;;;231.30;2252.80;;;;;;5030139;28;20022;-60
2021/11/29 10:24:52;;;;;;;15.02;10.20;;;231.20;2252.80;;;;;;5029922;28;20053;-59
2021/11/29 10:27:19;;;;;;;20.63;14.45;;;231.30;2252.80;;;;;;5030098;28;20033;-60
2021/11/29 10:29:54;;;;;;;16.85;12.98;;;231.10;2252.80;;;;;;5029671;28;20468;-62
2021/11/29 10:32:35;;;;;;;21.67;13.60;;;231.10;2252.80;;;;;;5030243;28;20113;-59
2021/11/29 10:35:02;;;;;;;22.35;14.40;;;231.00;2252.80;;;;;;5029919;28;20022;-61
2021/11/29 10:37:33;;;;;;;28.35;20.73;;;230.90;2252.80;;;;;;5030017;28;20036;-60
2021/11/29 10:39:59;;;;;;;22.30;15.93;;;230.80;2252.80;;;;;;5029852;28;20511;-60
2021/11/29 10:42:27;;;;;;;21.15;14.68;;;230.80;2252.80;;;;;;5029551;28;20129;-60
2021/11/29 10:44:54;;;;;;;23.35;15.88;;;230.60;2252.80;;;;;;5029603;28;20530;-60
2021/11/29 10:47:21;;;;;;;27.15;18.63;;;230.40;2252.80;;;;;;5030073;28;20038;-60
2021/11/29 10:49:53;;;;;;;24.05;17.55;;;205.70;2252.80;;;;;;5030047;28;20028;-60
2021/11/29 10:52:22;;;;;;;26.88;17.10;;;205.50;2252.80;;;;;;5032325;28;20028;-59
2021/11/29 10:54:48;;;;;;;28.02;17.55;;;205.40;2252.80;;;;;;5029726;28;20021;-58
2021/11/29 10:57:16;;;;;;;25.30;15.80;;;205.20;2252.80;;;;;;5029471;28;20084;-59
2021/11/29 10:59:46;;;;;;;46.47;33.17;;;205.20;2252.80;;;;;;5029388;28;20095;-60
2021/11/29 11:02:14;;;;;;;30.80;23.60;;;205.20;2252.80;;;;;;5029444;28;20041;-61
2021/11/29 11:04:44;;;;;;;24.20;15.35;;;205.30;2252.80;;;;;;5029707;28;20025;-59
2021/11/29 11:07:26;;;;;;;27.08;17.50;;;205.20;2252.80;;;;;;5029725;28;20384;-59
2021/11/29 11:09:56;;;;;;;32.08;20.63;;;205.30;2252.80;;;;;;5029460;28;20017;-60
2021/11/29 11:12:25;;;;;;;35.15;24.23;;;205.20;2252.80;;;;;;5031118;28;20029;-60
2021/11/29 11:14:55;;;;;;;22.30;16.80;;;205.20;2252.80;;;;;;5033247;28;20052;-60
2021/11/29 11:17:26;;;;;;;25.58;17.90;;;205.00;2252.80;;;;;;5033408;28;20021;-60
2021/11/29 11:19:54;;;;;;;26.77;20.30;;;205.20;2252.80;;;;;;5033007;28;20080;-60
2021/11/29 11:22:32;;;;;;;19.95;13.70;;;205.10;2252.80;;;;;;5033153;28;20128;-59
2021/11/29 11:25:18;;;;;;;25.02;17.42;;;205.00;2252.80;;;;;;5033351;28;20022;-59
2021/11/29 11:28:05;;;;;;;25.50;15.18;;;205.00;2252.80;;;;;;5032971;28;20060;-59
2021/11/29 11:30:34;;;;;;;21.10;13.07;;;204.80;2252.80;;;;;;5032934;28;20491;-60
2021/11/29 11:33:07;;;;;;;38.00;29.38;;;204.90;2252.80;;;;;;5033179;28;20029;-60
2021/11/29 11:35:39;;;;;;;25.30;16.85;;;204.90;2252.80;;;;;;5031557;28;20033;-63
2021/11/29 11:38:08;;;;;;;21.95;14.70;;;205.20;2252.80;;;;;;5032786;28;20487;-59
2021/11/29 11:40:38;;;;;;;22.33;14.65;;;205.10;2252.80;;;;;;5032868;28;20022;-60
2021/11/29 11:43:05;;;;;;;27.13;17.67;;;205.00;2252.80;;;;;;5032554;28;20038;-61
2021/11/29 11:45:34;;;;;;;48.95;35.08;;;205.00;2252.80;;;;;;5032790;28;20045;-60
2021/11/29 11:48:00;;;;;;;22.95;15.05;;;204.80;2252.80;;;;;;5032757;28;20125;-61
2021/11/29 11:50:35;;;;;;;21.38;14.23;;;205.00;2252.80;;;;;;5032787;28;20502;-59
2021/11/29 11:53:04;;;;;;;23.05;15.40;;;205.10;2252.80;;;;;;5031652;28;20037;-60
2021/11/29 11:55:33;;;;;;;21.55;15.70;;;205.00;2252.80;;;;;;5032668;28;20087;-61
2021/11/29 11:58:20;;;;;;;17.75;11.63;;;205.10;2252.80;;;;;;5032630;28;20022;-59
2021/11/29 12:00:51;;;;;;;19.63;12.63;;;205.10;2252.80;;;;;;5032260;28;20061;-61
2021/11/29 12:03:27;;;;;;;17.63;11.13;;;205.10;2252.80;;;;;;5032429;28;20037;-60
2021/11/29 12:05:59;;;;;;;19.83;11.25;;;205.10;2252.80;;;;;;5032252;28;20033;-61